Time,TemperatureF,DewpointF,PressureIn,WindDirection,WindDirectionDegrees,WindSpeedMPH,WindSpeedGustMPH,Humidity,HourlyPrecipIn,Conditions,Clouds,dailyrainin,SoftwareType,DateUTC
2013-05-21 00:01:00,61.9,58.3,29.98,SSW,211,0.0,0.0,88,0.00,,---,0.00,VWS V14.01,2013-05-21 04:01:00,
2013-05-21 00:02:00,61.9,58.3,29.98,SSW,211,0.0,0.0,88,0.00,,---,0.00,VWS V14.01,2013-05-21 04:02:00,
2013-05-21 00:07:00,61.7,58.1,29.98,SSW,211,0.0,0.0,88,0.00,,---,0.00,VWS V14.01,2013-05-21 04:07:00,
2013-05-21 00:12:00,61.7,58.1,29.98,SSW,211,0.0,0.0,88,0.00,,---,0.00,VWS V14.01,2013-05-21 04:12:00,
2013-05-21 00:17:00,61.5,57.9,29.98,SSW,211,0.0,0.0,88,0.00,,---,0.00,VWS V14.01,2013-05-21 04:17:00,
2013-05-21 00:22:00,61.3,57.8,29.98,SSW,211,0.0,0.0,88,0.00,,---,0.00,VWS V14.01,2013-05-21 04:22:00,
2013-05-21 00:27:00,61.2,57.6,29.98,SSW,211,0.0,0.0,88,0.00,,---,0.00,VWS V14.01,2013-05-21 04:27:00,
2013-05-21 00:32:00,61.0,57.4,29.98,SSW,211,0.0,0.0,88,0.00,,---,0.00,VWS V14.01,2013-05-21 04:32:00,
2013-05-21 00:37:00,60.8,57.2,29.98,SSW,211,0.0,0.0,88,0.00,,---,0.00,VWS V14.01,2013-05-21 04:37:00,
2013-05-21 00:42:00,60.6,57.4,29.98,SSW,211,0.0,0.0,89,0.00,,---,0.00,VWS V14.01,2013-05-21 04:42:00,
2013-05-21 00:47:00,60.6,57.4,29.98,SSW,211,0.0,0.0,89,0.00,,---,0.00,VWS V14.01,2013-05-21 04:47:00,
2013-05-21 00:52:00,60.4,57.2,29.98,SSW,211,0.0,0.0,89,0.00,,---,0.00,VWS V14.01,2013-05-21 04:52:00,
2013-05-21 00:57:00,60.4,57.2,29.98,SSW,211,0.0,0.0,89,0.00,,---,0.00,VWS V14.01,2013-05-21 04:57:00,
2013-05-21 01:02:00,60.4,57.2,29.98,SSW,211,0.0,0.0,89,0.00,,---,0.00,VWS V14.01,2013-05-21 05:02:00,
2013-05-21 01:07:00,60.4,57.5,29.98,SSW,211,0.0,0.0,90,0.00,,---,0.00,VWS V14.01,2013-05-21 05:07:00,
2013-05-21 01:12:00,60.6,57.7,29.98,SSW,211,0.0,0.0,90,0.00,,---,0.00,VWS V14.01,2013-05-21 05:12:00,
2013-05-21 01:17:00,60.6,57.7,29.98,ENE,68,0.0,0.0,90,0.00,,---,0.00,VWS V14.01,2013-05-21 05:17:00,
2013-05-21 01:22:00,60.6,57.7,29.98,East,79,0.0,0.0,90,0.00,,---,0.00,VWS V14.01,2013-05-21 05:22:00,
2013-05-21 01:27:00,60.4,57.5,29.98,East,79,0.0,0.0,90,0.00,,---,0.00,VWS V14.01,2013-05-21 05:27:00,
2013-05-21 01:32:00,60.4,57.5,29.98,East,79,0.0,0.0,90,0.00,,---,0.00,VWS V14.01,2013-05-21 05:32:00,
2013-05-21 01:37:00,60.3,57.3,29.98,East,79,0.0,0.0,90,0.00,,---,0.00,VWS V14.01,2013-05-21 05:37:00,
2013-05-21 01:43:00,60.1,57.1,29.98,East,79,0.0,0.0,90,0.00,,---,0.00,VWS V14.01,2013-05-21 05:43:00,
2013-05-21 01:48:00,60.1,57.1,29.98,East,79,0.0,0.0,90,0.00,,---,0.00,VWS V14.01,2013-05-21 05:48:00,
2013-05-21 01:53:00,60.1,57.1,29.98,East,79,0.0,0.0,90,0.00,,---,0.00,VWS V14.01,2013-05-21 05:53:00,
2013-05-21 01:58:00,60.1,57.1,29.98,East,79,0.0,0.0,90,0.00,,---,0.00,VWS V14.01,2013-05-21 05:58:00,
2013-05-21 02:03:00,60.1,57.5,29.98,East,79,0.0,0.0,91,0.00,,---,0.00,VWS V14.01,2013-05-21 06:03:00,
2013-05-21 02:08:00,60.1,57.5,29.98,East,79,0.0,0.0,91,0.00,,---,0.00,VWS V14.01,2013-05-21 06:08:00,
2013-05-21 02:13:00,60.3,57.6,29.98,East,79,0.0,0.0,91,0.00,,---,0.00,VWS V14.01,2013-05-21 06:13:00,
2013-05-21 02:18:00,60.3,57.6,29.98,East,79,0.0,0.0,91,0.00,,---,0.00,VWS V14.01,2013-05-21 06:18:00,
2013-05-21 02:23:00,60.3,57.6,29.98,East,79,0.0,0.0,91,0.00,,---,0.00,VWS V14.01,2013-05-21 06:23:00,
2013-05-21 02:28:00,60.1,57.5,29.98,East,79,0.0,0.0,91,0.00,,---,0.00,VWS V14.01,2013-05-21 06:28:00,
2013-05-21 02:33:00,59.9,57.3,29.98,East,79,0.0,0.0,91,0.00,,---,0.00,VWS V14.01,2013-05-21 06:33:00,
2013-05-21 02:38:00,59.7,57.1,29.98,East,79,0.0,0.0,91,0.00,,---,0.00,VWS V14.01,2013-05-21 06:38:00,
2013-05-21 02:43:00,59.5,56.9,29.98,East,79,0.0,0.0,91,0.00,,---,0.00,VWS V14.01,2013-05-21 06:43:00,
2013-05-21 02:48:00,59.4,56.7,29.98,East,79,0.0,0.0,91,0.00,,---,0.00,VWS V14.01,2013-05-21 06:48:00,
2013-05-21 02:53:00,59.4,56.7,29.98,East,79,0.0,0.0,91,0.00,,---,0.00,VWS V14.01,2013-05-21 06:53:00,
2013-05-21 02:58:00,59.5,56.9,29.98,East,79,0.0,0.0,91,0.00,,---,0.00,VWS V14.01,2013-05-21 06:58:00,
2013-05-21 03:03:00,59.7,57.4,29.98,East,79,0.0,0.0,92,0.00,,---,0.00,VWS V14.01,2013-05-21 07:03:00,
2013-05-21 03:08:00,59.9,57.6,29.98,East,79,0.0,0.0,92,0.00,,---,0.00,VWS V14.01,2013-05-21 07:08:00,
2013-05-21 03:13:00,60.1,57.8,29.98,East,79,0.0,0.0,92,0.00,,---,0.00,VWS V14.01,2013-05-21 07:13:00,
2013-05-21 03:18:00,60.1,57.8,29.98,East,79,0.0,0.0,92,0.00,,---,0.00,VWS V14.01,2013-05-21 07:18:00,
2013-05-21 03:23:00,60.1,57.8,29.98,East,79,0.0,0.0,92,0.00,,---,0.00,VWS V14.01,2013-05-21 07:23:00,
2013-05-21 03:28:00,60.1,57.8,29.98,East,79,0.0,0.0,92,0.00,,---,0.00,VWS V14.01,2013-05-21 07:28:00,
2013-05-21 03:33:00,60.3,57.9,29.98,East,79,0.0,0.0,92,0.00,,---,0.00,VWS V14.01,2013-05-21 07:33:00,
2013-05-21 03:38:00,60.3,57.9,29.98,East,79,0.0,0.0,92,0.00,,---,0.00,VWS V14.01,2013-05-21 07:38:00,
2013-05-21 03:43:00,60.4,58.1,29.98,East,79,0.0,0.0,92,0.00,,---,0.00,VWS V14.01,2013-05-21 07:43:00,
2013-05-21 03:48:00,60.4,58.1,29.98,East,79,0.0,0.0,92,0.00,,---,0.00,VWS V14.01,2013-05-21 07:48:00,
2013-05-21 03:53:00,60.4,58.1,29.98,East,79,0.0,0.0,92,0.00,,---,0.00,VWS V14.01,2013-05-21 07:53:00,
2013-05-21 03:58:00,60.6,58.6,29.98,East,79,0.0,0.0,93,0.00,,---,0.00,VWS V14.01,2013-05-21 07:58:00,
2013-05-21 04:03:00,60.8,58.5,29.98,East,79,0.0,0.0,92,0.00,,---,0.00,VWS V14.01,2013-05-21 08:03:00,
2013-05-21 04:08:00,60.6,58.6,29.98,East,79,0.0,0.0,93,0.00,,---,0.00,VWS V14.01,2013-05-21 08:08:00,
2013-05-21 04:13:00,60.6,58.3,29.98,East,79,0.0,0.0,92,0.00,,---,0.00,VWS V14.01,2013-05-21 08:13:00,
2013-05-21 04:18:00,60.6,58.6,29.98,East,79,0.0,0.0,93,0.00,,---,0.00,VWS V14.01,2013-05-21 08:18:00,
2013-05-21 04:23:00,60.6,58.6,29.98,East,79,0.0,0.0,93,0.00,,---,0.00,VWS V14.01,2013-05-21 08:23:00,
2013-05-21 04:28:00,60.8,58.5,29.98,East,79,0.0,0.0,92,0.00,,---,0.00,VWS V14.01,2013-05-21 08:28:00,
2013-05-21 04:33:00,60.8,58.8,29.98,East,79,0.0,0.0,93,0.00,,---,0.00,VWS V14.01,2013-05-21 08:33:00,
2013-05-21 04:38:00,61.0,59.0,29.98,East,79,0.0,0.0,93,0.00,,---,0.00,VWS V14.01,2013-05-21 08:38:00,
2013-05-21 04:43:00,61.0,59.0,29.98,East,79,0.0,0.0,93,0.00,,---,0.00,VWS V14.01,2013-05-21 08:43:00,
2013-05-21 04:48:00,61.0,59.0,29.98,East,79,0.0,0.0,93,0.00,,---,0.00,VWS V14.01,2013-05-21 08:48:00,
2013-05-21 04:53:00,60.8,58.8,29.98,East,79,0.0,0.0,93,0.00,,---,0.00,VWS V14.01,2013-05-21 08:53:00,
2013-05-21 04:58:00,60.8,58.8,29.98,ENE,74,0.0,0.0,93,0.00,,---,0.00,VWS V14.01,2013-05-21 08:58:00,
2013-05-21 05:03:00,60.8,58.8,29.98,ENE,74,0.0,0.0,93,0.00,,---,0.00,VWS V14.01,2013-05-21 09:03:00,
2013-05-21 05:08:00,61.0,59.0,29.98,ENE,74,0.0,0.0,93,0.00,,---,0.00,VWS V14.01,2013-05-21 09:08:00,
2013-05-21 05:13:00,61.0,59.0,29.98,ENE,74,0.0,0.0,93,0.00,,---,0.00,VWS V14.01,2013-05-21 09:13:00,
2013-05-21 05:18:00,61.0,59.0,29.98,ENE,74,0.0,0.0,93,0.00,,---,0.00,VWS V14.01,2013-05-21 09:18:00,
2013-05-21 05:23:00,61.0,59.0,29.98,ENE,74,0.0,0.0,93,0.00,,---,0.00,VWS V14.01,2013-05-21 09:23:00,
2013-05-21 05:28:00,61.0,59.0,29.98,ENE,74,0.0,0.0,93,0.00,,---,0.00,VWS V14.01,2013-05-21 09:28:00,
2013-05-21 05:33:00,61.0,59.0,29.98,ENE,74,0.0,0.0,93,0.00,,---,0.00,VWS V14.01,2013-05-21 09:33:00,
2013-05-21 05:38:00,61.0,59.0,29.98,ENE,74,0.0,0.0,93,0.00,,---,0.00,VWS V14.01,2013-05-21 09:38:00,
2013-05-21 05:43:00,61.0,59.0,29.98,ENE,74,0.0,0.0,93,0.00,,---,0.00,VWS V14.01,2013-05-21 09:43:00,
2013-05-21 05:48:00,61.0,59.0,29.98,ENE,74,0.0,0.0,93,0.00,,---,0.00,VWS V14.01,2013-05-21 09:48:00,
2013-05-21 05:53:00,61.0,59.0,29.98,ENE,74,0.0,0.0,93,0.00,,---,0.00,VWS V14.01,2013-05-21 09:53:00,
2013-05-21 05:58:00,61.0,59.2,29.98,ENE,74,0.0,0.0,94,0.00,,---,0.00,VWS V14.01,2013-05-21 09:58:00,
2013-05-21 06:03:00,61.0,59.2,29.98,ENE,76,0.0,0.0,94,0.00,,---,0.00,VWS V14.01,2013-05-21 10:03:00,
2013-05-21 06:08:00,61.2,59.4,29.98,ENE,76,0.0,0.0,94,0.00,,---,0.00,VWS V14.01,2013-05-21 10:08:00,
2013-05-21 06:13:00,61.2,59.4,29.98,ENE,76,0.0,0.0,94,0.00,,---,0.00,VWS V14.01,2013-05-21 10:13:00,
2013-05-21 06:18:00,61.2,59.4,29.98,ENE,76,0.0,0.0,94,0.00,,---,0.00,VWS V14.01,2013-05-21 10:18:00,
2013-05-21 06:23:00,61.2,59.4,29.98,ENE,76,0.0,0.0,94,0.00,,---,0.00,VWS V14.01,2013-05-21 10:23:00,
2013-05-21 06:28:00,61.2,59.4,30.01,ENE,76,0.0,0.0,94,0.00,,---,0.00,VWS V14.01,2013-05-21 10:28:00,
2013-05-21 06:33:00,61.2,59.4,30.01,ENE,78,0.0,0.0,94,0.00,,---,0.00,VWS V14.01,2013-05-21 10:33:00,
2013-05-21 06:38:00,61.2,59.4,30.01,ENE,78,0.0,0.0,94,0.00,,---,0.00,VWS V14.01,2013-05-21 10:38:00,
2013-05-21 06:43:00,61.3,59.6,30.01,ENE,78,0.0,0.0,94,0.00,,---,0.00,VWS V14.01,2013-05-21 10:43:00,
2013-05-21 06:48:00,61.3,59.6,30.01,ENE,78,0.0,0.0,94,0.00,,---,0.00,VWS V14.01,2013-05-21 10:48:00,
2013-05-21 06:53:00,61.3,59.6,30.01,ENE,78,0.0,0.0,94,0.00,,---,0.00,VWS V14.01,2013-05-21 10:53:00,
2013-05-21 06:58:00,61.3,59.9,30.01,ENE,78,0.0,0.0,95,0.00,,---,0.00,VWS V14.01,2013-05-21 10:58:00,
2013-05-21 07:03:00,61.3,59.9,30.01,ENE,78,0.0,0.0,95,0.00,,---,0.00,VWS V14.01,2013-05-21 11:03:00,
2013-05-21 07:08:00,61.5,60.1,30.01,ENE,78,0.0,0.0,95,0.00,,---,0.00,VWS V14.01,2013-05-21 11:08:00,
2013-05-21 07:13:00,61.7,60.3,30.01,ENE,78,0.0,0.0,95,0.00,,---,0.00,VWS V14.01,2013-05-21 11:13:00,
2013-05-21 07:18:00,61.7,60.3,30.01,East,79,0.0,0.0,95,0.00,,---,0.00,VWS V14.01,2013-05-21 11:18:00,
2013-05-21 07:23:00,61.7,60.3,30.01,East,79,0.0,0.0,95,0.00,,---,0.00,VWS V14.01,2013-05-21 11:23:00,
2013-05-21 07:28:00,61.7,60.3,30.01,East,79,0.0,0.0,95,0.00,,---,0.00,VWS V14.01,2013-05-21 11:28:00,
2013-05-21 07:33:00,61.7,60.3,30.01,East,80,0.0,0.0,95,0.00,,---,0.00,VWS V14.01,2013-05-21 11:33:00,
2013-05-21 07:38:00,61.9,60.4,30.01,East,80,0.0,0.0,95,0.00,,---,0.00,VWS V14.01,2013-05-21 11:38:00,
2013-05-21 07:43:00,61.9,60.4,29.98,East,85,0.0,0.0,95,0.00,,---,0.00,VWS V14.01,2013-05-21 11:43:00,
2013-05-21 07:48:00,61.9,60.4,29.98,East,85,0.0,0.0,95,0.00,,---,0.00,VWS V14.01,2013-05-21 11:48:00,
2013-05-21 07:53:00,61.9,60.4,29.98,East,85,0.0,0.0,95,0.00,,---,0.00,VWS V14.01,2013-05-21 11:53:00,
2013-05-21 07:58:00,62.1,60.6,30.01,East,85,0.0,0.0,95,0.00,,---,0.00,VWS V14.01,2013-05-21 11:58:00,
2013-05-21 08:03:00,62.1,60.6,30.01,East,85,0.0,0.0,95,0.00,,---,0.00,VWS V14.01,2013-05-21 12:03:00,
2013-05-21 08:08:00,62.1,60.6,30.01,WSW,254,0.0,0.0,95,0.00,,---,0.00,VWS V14.01,2013-05-21 12:08:00,
2013-05-21 08:13:00,61.9,60.1,30.01,WSW,254,0.0,0.0,94,0.00,,---,0.00,VWS V14.01,2013-05-21 12:13:00,
2013-05-21 08:18:00,61.9,60.4,30.01,WSW,241,0.0,0.0,95,0.00,,---,0.00,VWS V14.01,2013-05-21 12:18:00,
2013-05-21 08:23:00,62.1,60.6,30.01,WSW,241,0.0,0.0,95,0.00,,---,0.00,VWS V14.01,2013-05-21 12:23:00,
2013-05-21 08:28:00,62.1,60.6,30.01,West,259,0.0,0.0,95,0.00,,---,0.00,VWS V14.01,2013-05-21 12:28:00,
2013-05-21 08:33:00,62.2,60.8,30.01,WSW,249,2.2,2.7,95,0.00,,---,0.00,VWS V14.01,2013-05-21 12:33:00,
2013-05-21 08:38:00,62.4,61.0,30.01,WSW,249,0.0,0.0,95,0.00,,---,0.00,VWS V14.01,2013-05-21 12:38:00,
2013-05-21 08:43:00,62.4,61.3,30.01,WSW,249,0.0,0.0,96,0.00,,---,0.00,VWS V14.01,2013-05-21 12:43:00,
2013-05-21 08:48:00,62.4,61.3,30.01,SSW,212,0.0,0.0,96,0.00,,---,0.00,VWS V14.01,2013-05-21 12:48:00,
2013-05-21 08:53:00,62.4,61.3,30.01,SSW,212,3.1,3.1,96,0.00,,---,0.00,VWS V14.01,2013-05-21 12:53:00,
2013-05-21 08:58:00,62.2,61.1,30.01,SW,223,3.6,3.6,96,0.00,,---,0.00,VWS V14.01,2013-05-21 12:58:00,
2013-05-21 09:03:00,62.2,61.1,30.01,SSW,212,0.0,0.0,96,0.00,,---,0.00,VWS V14.01,2013-05-21 13:03:00,
2013-05-21 09:08:00,62.2,61.1,30.01,SSW,212,3.1,3.1,96,0.00,,---,0.00,VWS V14.01,2013-05-21 13:08:00,
2013-05-21 09:13:00,62.2,61.1,30.01,SW,230,0.0,0.0,96,0.00,,---,0.00,VWS V14.01,2013-05-21 13:13:00,
2013-05-21 09:18:00,62.4,61.3,30.01,SW,218,0.0,0.0,96,0.00,,---,0.00,VWS V14.01,2013-05-21 13:18:00,
2013-05-21 09:23:00,62.6,61.5,30.01,SW,221,0.0,0.0,96,0.00,,---,0.00,VWS V14.01,2013-05-21 13:23:00,
2013-05-21 09:28:00,62.8,61.6,30.01,SW,226,2.2,2.2,96,0.00,,---,0.00,VWS V14.01,2013-05-21 13:28:00,
2013-05-21 09:33:00,63.0,61.8,30.01,SW,214,0.0,0.0,96,0.00,,---,0.00,VWS V14.01,2013-05-21 13:33:00,
2013-05-21 09:38:00,63.0,61.8,30.01,SW,224,2.7,2.7,96,0.00,,---,0.00,VWS V14.01,2013-05-21 13:38:00,
2013-05-21 09:43:00,63.1,62.0,30.01,West,264,2.7,4.0,96,0.00,,---,0.00,VWS V14.01,2013-05-21 13:43:00,
2013-05-21 09:48:00,63.3,62.2,30.01,SW,216,0.0,0.0,96,0.00,,---,0.00,VWS V14.01,2013-05-21 13:48:00,
2013-05-21 09:53:00,63.5,62.3,30.01,SW,221,0.0,0.0,96,0.00,,---,0.00,VWS V14.01,2013-05-21 13:53:00,
2013-05-21 09:58:00,63.9,62.7,30.01,SSW,194,2.7,4.0,96,0.00,,---,0.00,VWS V14.01,2013-05-21 13:58:00,
2013-05-21 10:03:00,64.2,63.1,30.01,SSW,200,4.0,4.5,96,0.00,,---,0.00,VWS V14.01,2013-05-21 14:03:00,
2013-05-21 10:08:00,64.6,63.4,30.01,SW,219,3.1,5.4,96,0.00,,---,0.00,VWS V14.01,2013-05-21 14:08:00,
2013-05-21 10:13:00,64.9,63.8,30.01,SSW,202,0.0,2.2,96,0.00,,---,0.00,VWS V14.01,2013-05-21 14:13:00,
2013-05-21 10:18:00,64.9,63.5,30.01,SW,235,0.0,2.7,95,0.00,,---,0.00,VWS V14.01,2013-05-21 14:18:00,
2013-05-21 10:23:00,64.9,63.2,30.01,SSW,210,2.7,3.1,94,0.00,,---,0.00,VWS V14.01,2013-05-21 14:23:00,
2013-05-21 10:28:00,65.1,62.4,30.01,SW,230,0.0,2.2,91,0.00,,---,0.00,VWS V14.01,2013-05-21 14:28:00,
2013-05-21 10:33:00,65.3,62.3,30.01,SW,230,0.0,0.0,90,0.00,,---,0.00,VWS V14.01,2013-05-21 14:33:00,
2013-05-21 10:38:00,65.8,62.5,30.01,SW,220,3.6,3.6,89,0.00,,---,0.00,VWS V14.01,2013-05-21 14:38:00,
2013-05-21 10:43:00,65.8,61.5,30.01,SSW,212,4.0,4.0,86,0.00,,---,0.00,VWS V14.01,2013-05-21 14:43:00,
2013-05-21 10:48:00,66.2,60.5,30.01,SE,142,3.6,3.6,82,0.00,,---,0.00,VWS V14.01,2013-05-21 14:48:00,
2013-05-21 10:53:00,66.6,60.9,30.01,South,178,2.7,3.6,82,0.00,,---,0.00,VWS V14.01,2013-05-21 14:53:00,
2013-05-21 10:58:00,67.1,61.4,30.01,South,177,0.0,0.0,82,0.00,,---,0.00,VWS V14.01,2013-05-21 14:58:00,
2013-05-21 11:03:00,67.5,61.4,30.01,SE,136,2.7,3.1,81,0.00,,---,0.00,VWS V14.01,2013-05-21 15:03:00,
2013-05-21 11:08:00,67.8,61.4,30.01,South,181,0.0,0.0,80,0.00,,---,0.00,VWS V14.01,2013-05-21 15:08:00,
2013-05-21 11:13:00,68.2,60.3,30.01,SW,226,0.0,0.0,76,0.00,,---,0.00,VWS V14.01,2013-05-21 15:13:00,
2013-05-21 11:18:00,68.9,59.9,30.01,SW,233,3.1,3.6,73,0.00,,---,0.00,VWS V14.01,2013-05-21 15:18:00,
2013-05-21 11:23:00,69.3,59.1,30.01,WSW,246,4.0,4.0,70,0.00,,---,0.00,VWS V14.01,2013-05-21 15:23:00,
2013-05-21 11:28:00,69.8,58.4,30.01,SW,218,0.0,2.2,67,0.00,,---,0.00,VWS V14.01,2013-05-21 15:28:00,
2013-05-21 11:33:00,70.2,57.9,30.01,SW,218,0.0,0.0,65,0.00,,---,0.00,VWS V14.01,2013-05-21 15:33:00,
2013-05-21 11:38:00,70.7,57.9,30.01,SW,217,3.1,3.6,64,0.00,,---,0.00,VWS V14.01,2013-05-21 15:38:00,
2013-05-21 11:43:00,71.1,57.4,30.01,WNW,303,3.1,4.0,62,0.00,,---,0.00,VWS V14.01,2013-05-21 15:43:00,
2013-05-21 11:48:00,71.6,57.5,30.01,West,280,2.7,3.1,61,0.00,,---,0.00,VWS V14.01,2013-05-21 15:48:00,
2013-05-21 11:53:00,72.1,57.0,30.01,WSW,255,0.0,0.0,59,0.00,,---,0.00,VWS V14.01,2013-05-21 15:53:00,
2013-05-21 11:58:00,72.7,57.1,29.98,SSW,200,4.0,4.0,58,0.00,,---,0.00,VWS V14.01,2013-05-21 15:58:00,
2013-05-21 12:03:00,73.2,52.9,29.98,SSW,197,3.1,6.3,49,0.00,,---,0.00,VWS V14.01,2013-05-21 16:03:00,
2013-05-21 12:08:00,73.6,54.4,29.98,SW,221,2.7,3.6,51,0.00,,---,0.00,VWS V14.01,2013-05-21 16:08:00,
2013-05-21 12:13:00,74.1,53.8,29.98,WSW,250,0.0,2.7,49,0.00,,---,0.00,VWS V14.01,2013-05-21 16:13:00,
2013-05-21 12:19:00,74.5,55.2,29.98,WSW,258,4.0,4.0,51,0.00,,---,0.00,VWS V14.01,2013-05-21 16:19:00,
2013-05-21 12:24:00,74.8,52.1,29.98,SW,234,0.0,2.2,45,0.00,,---,0.00,VWS V14.01,2013-05-21 16:24:00,
2013-05-21 12:29:00,75.2,51.2,29.98,SW,223,6.3,6.3,43,0.00,,---,0.00,VWS V14.01,2013-05-21 16:29:00,
2013-05-21 12:34:00,75.4,51.3,29.98,WSW,256,2.2,4.9,43,0.00,,---,0.00,VWS V14.01,2013-05-21 16:34:00,
2013-05-21 12:39:00,75.7,51.7,29.98,WSW,253,4.0,4.0,43,0.00,,---,0.00,VWS V14.01,2013-05-21 16:39:00,
2013-05-21 12:44:00,75.9,51.2,29.98,SW,222,3.6,4.0,42,0.00,,---,0.00,VWS V14.01,2013-05-21 16:44:00,
2013-05-21 12:49:00,76.3,50.9,29.98,SW,224,6.7,6.7,41,0.00,,---,0.00,VWS V14.01,2013-05-21 16:49:00,
2013-05-21 12:54:00,76.1,50.0,29.98,WSW,239,3.6,4.0,40,0.00,,---,0.00,VWS V14.01,2013-05-21 16:54:00,
2013-05-21 12:59:00,76.3,50.9,29.98,SW,233,0.0,0.0,41,0.00,,---,0.00,VWS V14.01,2013-05-21 16:59:00,
2013-05-21 13:04:00,76.8,51.4,29.98,WSW,257,3.1,5.4,41,0.00,,---,0.00,VWS V14.01,2013-05-21 17:04:00,
2013-05-21 13:09:00,77.5,52.0,29.98,WSW,239,4.0,5.4,41,0.00,,---,0.00,VWS V14.01,2013-05-21 17:09:00,
2013-05-21 13:14:00,78.1,49.7,29.98,SSW,195,5.4,5.4,37,0.00,,---,0.00,VWS V14.01,2013-05-21 17:14:00,
2013-05-21 13:19:00,77.9,48.8,29.98,ENE,62,3.1,4.9,36,0.00,,---,0.00,VWS V14.01,2013-05-21 17:19:00,
2013-05-21 13:24:00,77.9,50.3,29.98,WSW,239,4.9,4.9,38,0.00,,---,0.00,VWS V14.01,2013-05-21 17:24:00,
2013-05-21 13:29:00,78.3,51.3,29.95,SW,217,3.6,3.6,39,0.00,,---,0.00,VWS V14.01,2013-05-21 17:29:00,
2013-05-21 13:34:00,78.6,48.7,29.95,West,276,0.0,3.1,35,0.00,,---,0.00,VWS V14.01,2013-05-21 17:34:00,
2013-05-21 13:39:00,79.0,48.2,29.95,WSW,248,8.1,8.1,34,0.00,,---,0.00,VWS V14.01,2013-05-21 17:39:00,
2013-05-21 13:44:00,79.0,49.8,29.95,West,261,3.6,5.8,36,0.00,,---,0.00,VWS V14.01,2013-05-21 17:44:00,
2013-05-21 13:49:00,79.2,48.4,29.95,SSW,198,6.3,6.3,34,0.00,,---,0.00,VWS V14.01,2013-05-21 17:49:00,
2013-05-21 13:54:00,79.5,47.9,29.95,SW,234,3.6,3.6,33,0.00,,---,0.00,VWS V14.01,2013-05-21 17:54:00,
2013-05-21 13:59:00,79.9,48.2,29.95,WSW,243,5.4,5.4,33,0.00,,---,0.00,VWS V14.01,2013-05-21 17:59:00,
2013-05-21 14:04:00,79.7,48.1,29.95,SW,219,5.8,5.8,33,0.00,,---,0.00,VWS V14.01,2013-05-21 18:04:00,
2013-05-21 14:09:00,79.9,49.0,29.95,WSW,258,2.7,3.1,34,0.00,,---,0.00,VWS V14.01,2013-05-21 18:09:00,
2013-05-21 14:14:00,80.2,49.3,29.95,West,261,0.0,3.1,34,0.00,,---,0.00,VWS V14.01,2013-05-21 18:14:00,
2013-05-21 14:19:00,80.6,48.0,29.95,SW,218,5.4,5.4,32,0.00,,---,0.00,VWS V14.01,2013-05-21 18:19:00,
2013-05-21 14:24:00,80.6,47.2,29.95,SSW,209,3.1,4.9,31,0.00,,---,0.00,VWS V14.01,2013-05-21 18:24:00,
2013-05-21 14:29:00,81.0,46.6,29.95,WSW,257,0.0,4.0,30,0.00,,---,0.00,VWS V14.01,2013-05-21 18:29:00,
2013-05-21 14:34:00,81.5,48.0,29.95,WSW,255,0.0,0.0,31,0.00,,---,0.00,VWS V14.01,2013-05-21 18:34:00,
2013-05-21 14:39:00,82.2,47.7,29.95,SSW,208,3.6,3.6,30,0.00,,---,0.00,VWS V14.01,2013-05-21 18:39:00,
2013-05-21 14:44:00,82.4,47.0,29.95,West,259,3.6,4.9,29,0.00,,---,0.00,VWS V14.01,2013-05-21 18:44:00,
2013-05-21 14:49:00,82.4,47.0,29.95,WSW,243,5.8,5.8,29,0.00,,---,0.00,VWS V14.01,2013-05-21 18:49:00,
2013-05-21 14:54:00,82.6,47.1,29.95,SSW,209,6.3,6.3,29,0.00,,---,0.00,VWS V14.01,2013-05-21 18:54:00,
2013-05-21 14:59:00,82.6,46.2,29.92,SW,216,2.7,5.4,28,0.00,,---,0.00,VWS V14.01,2013-05-21 18:59:00,
2013-05-21 15:04:00,82.6,45.2,29.92,WNW,296,3.1,4.0,27,0.00,,---,0.00,VWS V14.01,2013-05-21 19:04:00,
2013-05-21 15:09:00,82.9,47.5,29.92,WNW,286,4.0,4.0,29,0.00,,---,0.00,VWS V14.01,2013-05-21 19:09:00,
2013-05-21 15:14:00,83.1,44.7,29.92,WSW,239,2.7,5.8,26,0.00,,---,0.00,VWS V14.01,2013-05-21 19:14:00,
2013-05-21 15:19:00,83.3,45.9,29.92,East,88,0.0,3.6,27,0.00,,---,0.00,VWS V14.01,2013-05-21 19:19:00,
2013-05-21 15:24:00,83.5,44.0,29.92,SE,128,4.0,4.9,25,0.00,,---,0.00,VWS V14.01,2013-05-21 19:24:00,
2013-05-21 15:29:00,84.2,45.6,29.92,WSW,242,4.9,5.8,26,0.00,,---,0.00,VWS V14.01,2013-05-21 19:29:00,
2013-05-21 15:34:00,84.6,44.9,29.92,SSW,203,6.3,6.3,25,0.00,,---,0.00,VWS V14.01,2013-05-21 19:34:00,
2013-05-21 15:39:00,83.8,44.3,29.92,SSW,211,3.6,3.6,25,0.00,,---,0.00,VWS V14.01,2013-05-21 19:39:00,
2013-05-21 15:44:00,83.3,44.9,29.92,SW,233,2.7,3.6,26,0.00,,---,0.00,VWS V14.01,2013-05-21 19:44:00,
2013-05-21 15:49:00,82.9,44.6,29.92,SW,234,3.6,6.3,26,0.00,,---,0.00,VWS V14.01,2013-05-21 19:49:00,
2013-05-21 15:54:00,82.8,44.4,29.92,WSW,252,4.0,4.0,26,0.00,,---,0.00,VWS V14.01,2013-05-21 19:54:00,
2013-05-21 15:59:00,83.1,45.7,29.92,SW,224,4.0,4.0,27,0.00,,---,0.00,VWS V14.01,2013-05-21 19:59:00,
2013-05-21 16:04:00,83.1,44.7,29.92,WSW,254,4.9,4.9,26,0.00,,---,0.00,VWS V14.01,2013-05-21 20:04:00,
2013-05-21 16:09:00,82.6,45.2,29.92,WSW,247,0.0,0.0,27,0.00,,---,0.00,VWS V14.01,2013-05-21 20:09:00,
2013-05-21 16:14:00,82.2,44.9,29.92,WSW,254,2.2,2.2,27,0.00,,---,0.00,VWS V14.01,2013-05-21 20:14:00,
2013-05-21 16:19:00,82.4,46.1,29.92,West,261,3.6,3.6,28,0.00,,---,0.00,VWS V14.01,2013-05-21 20:19:00,
2013-05-21 16:24:00,82.8,44.4,29.92,West,259,3.1,3.1,26,0.00,,---,0.00,VWS V14.01,2013-05-21 20:24:00,
2013-05-21 16:29:00,82.6,45.2,29.89,West,276,2.7,2.7,27,0.00,,---,0.00,VWS V14.01,2013-05-21 20:29:00,
2013-05-21 16:34:00,82.8,44.4,29.89,WNW,282,6.3,6.3,26,0.00,,---,0.00,VWS V14.01,2013-05-21 20:34:00,
2013-05-21 16:39:00,82.8,46.4,29.89,WSW,248,6.3,6.3,28,0.00,,---,0.00,VWS V14.01,2013-05-21 20:39:00,
2013-05-21 16:44:00,83.1,44.7,29.89,WSW,249,5.4,5.4,26,0.00,,---,0.00,VWS V14.01,2013-05-21 20:44:00,
2013-05-21 16:49:00,83.7,45.2,29.89,SW,229,2.2,4.0,26,0.00,,---,0.00,VWS V14.01,2013-05-21 20:49:00,
2013-05-21 16:54:00,84.0,42.3,29.89,West,261,4.0,4.0,23,0.00,,---,0.00,VWS V14.01,2013-05-21 20:54:00,
2013-05-21 16:59:00,83.8,42.1,29.89,WSW,254,3.6,5.8,23,0.00,,---,0.00,VWS V14.01,2013-05-21 20:59:00,
2013-05-21 17:04:00,83.7,44.2,29.89,WSW,249,2.7,2.7,25,0.00,,---,0.00,VWS V14.01,2013-05-21 21:04:00,
2013-05-21 17:09:00,83.7,43.1,29.89,WNW,303,3.6,5.4,24,0.00,,---,0.00,VWS V14.01,2013-05-21 21:09:00,
2013-05-21 17:14:00,83.8,43.2,29.86,SW,224,4.0,4.9,24,0.00,,---,0.00,VWS V14.01,2013-05-21 21:14:00,
2013-05-21 17:19:00,83.1,41.5,29.86,SW,220,3.1,3.1,23,0.00,,---,0.00,VWS V14.01,2013-05-21 21:19:00,
2013-05-21 17:24:00,82.4,42.0,29.86,SSW,207,4.0,4.0,24,0.00,,---,0.00,VWS V14.01,2013-05-21 21:24:00,
2013-05-21 17:29:00,82.0,42.8,29.89,WSW,250,2.7,3.1,25,0.00,,---,0.00,VWS V14.01,2013-05-21 21:29:00,
2013-05-21 17:34:00,82.8,47.3,29.89,WSW,241,4.0,6.3,29,0.00,,---,0.00,VWS V14.01,2013-05-21 21:34:00,
2013-05-21 17:39:00,83.1,42.6,29.89,West,271,4.9,5.4,24,0.00,,---,0.00,VWS V14.01,2013-05-21 21:39:00,
2013-05-21 17:44:00,83.1,42.6,29.86,West,278,4.0,4.0,24,0.00,,---,0.00,VWS V14.01,2013-05-21 21:44:00,
2013-05-21 17:49:00,83.1,41.5,29.86,West,265,2.7,3.6,23,0.00,,---,0.00,VWS V14.01,2013-05-21 21:49:00,
2013-05-21 17:54:00,83.5,41.8,29.86,WSW,251,3.1,3.1,23,0.00,,---,0.00,VWS V14.01,2013-05-21 21:54:00,
2013-05-21 17:59:00,83.5,41.8,29.86,SW,232,2.7,5.4,23,0.00,,---,0.00,VWS V14.01,2013-05-21 21:59:00,
2013-05-21 18:04:00,83.7,43.1,29.86,WSW,254,3.6,4.9,24,0.00,,---,0.00,VWS V14.01,2013-05-21 22:04:00,
2013-05-21 18:09:00,83.5,42.9,29.86,WSW,248,2.7,3.6,24,0.00,,---,0.00,VWS V14.01,2013-05-21 22:09:00,
2013-05-21 18:14:00,83.5,44.0,29.86,WSW,237,3.1,3.1,25,0.00,,---,0.00,VWS V14.01,2013-05-21 22:14:00,
2013-05-21 18:19:00,83.5,45.0,29.86,WNW,295,4.0,5.8,26,0.00,,---,0.00,VWS V14.01,2013-05-21 22:19:00,
2013-05-21 18:24:00,83.1,47.6,29.86,NW,307,2.7,4.0,29,0.00,,---,0.00,VWS V14.01,2013-05-21 22:24:00,
2013-05-21 18:29:00,82.9,47.5,29.86,NNE,13,2.7,5.8,29,0.00,,---,0.00,VWS V14.01,2013-05-21 22:29:00,
2013-05-21 18:34:00,82.6,47.1,29.86,WSW,251,4.0,5.8,29,0.00,,---,0.00,VWS V14.01,2013-05-21 22:34:00,
2013-05-21 18:39:00,82.2,47.7,29.86,SW,236,7.6,8.3,30,0.00,,---,0.00,VWS V14.01,2013-05-21 22:39:00,
2013-05-21 18:44:00,81.5,47.1,29.86,WSW,254,8.1,8.1,30,0.00,,---,0.00,VWS V14.01,2013-05-21 22:44:00,
2013-05-21 18:49:00,81.1,46.8,29.86,SW,221,6.3,8.1,30,0.00,,---,0.00,VWS V14.01,2013-05-21 22:49:00,
2013-05-21 18:54:00,80.4,47.0,29.86,NNW,329,4.0,5.4,31,0.00,,---,0.00,VWS V14.01,2013-05-21 22:54:00,
2013-05-21 18:59:00,79.7,46.4,29.86,NW,314,5.4,6.7,31,0.00,,---,0.00,VWS V14.01,2013-05-21 22:59:00,
2013-05-21 19:04:00,79.3,47.0,29.86,WNW,300,5.8,5.8,32,0.00,,---,0.00,VWS V14.01,2013-05-21 23:04:00,
2013-05-21 19:09:00,78.8,47.3,29.86,West,279,5.8,5.8,33,0.00,,---,0.00,VWS V14.01,2013-05-21 23:09:00,
2013-05-21 19:14:00,78.4,47.0,29.86,West,262,4.0,4.0,33,0.00,,---,0.00,VWS V14.01,2013-05-21 23:14:00,
2013-05-21 19:19:00,78.3,46.8,29.86,SW,228,3.1,3.1,33,0.00,,---,0.00,VWS V14.01,2013-05-21 23:19:00,
2013-05-21 19:24:00,78.1,46.7,29.86,WNW,302,5.4,5.8,33,0.00,,---,0.00,VWS V14.01,2013-05-21 23:24:00,
2013-05-21 19:29:00,77.9,46.5,29.89,NW,305,5.4,5.4,33,0.00,,---,0.00,VWS V14.01,2013-05-21 23:29:00,
2013-05-21 19:34:00,77.5,46.2,29.89,NW,313,5.8,6.3,33,0.00,,---,0.00,VWS V14.01,2013-05-21 23:34:00,
2013-05-21 19:39:00,77.4,46.0,29.89,NW,315,3.6,3.6,33,0.00,,---,0.00,VWS V14.01,2013-05-21 23:39:00,
2013-05-21 19:44:00,77.0,46.5,29.86,West,274,3.6,3.6,34,0.00,,---,0.00,VWS V14.01,2013-05-21 23:44:00,
2013-05-21 19:49:00,76.8,46.3,29.86,NW,317,5.4,5.4,34,0.00,,---,0.00,VWS V14.01,2013-05-21 23:49:00,
2013-05-21 19:54:00,76.6,46.2,29.86,WSW,250,5.4,7.2,34,0.00,,---,0.00,VWS V14.01,2013-05-21 23:54:00,
2013-05-21 19:59:00,76.5,46.0,29.86,West,265,3.6,5.8,34,0.00,,---,0.00,VWS V14.01,2013-05-21 23:59:00,
2013-05-21 20:04:00,76.5,45.2,29.86,West,276,4.0,6.3,33,0.00,,---,0.00,VWS V14.01,2013-05-22 00:04:00,
2013-05-21 20:09:00,76.3,45.9,29.86,WSW,241,2.7,3.6,34,0.00,,---,0.00,VWS V14.01,2013-05-22 00:09:00,
2013-05-21 20:14:00,75.9,45.6,29.86,WNW,289,2.7,2.7,34,0.00,,---,0.00,VWS V14.01,2013-05-22 00:14:00,
2013-05-21 20:19:00,75.6,46.0,29.86,West,259,2.7,3.1,35,0.00,,---,0.00,VWS V14.01,2013-05-22 00:19:00,
2013-05-21 20:24:00,75.0,46.3,29.86,West,267,3.1,3.1,36,0.00,,---,0.00,VWS V14.01,2013-05-22 00:24:00,
2013-05-21 20:29:00,74.8,46.1,29.86,West,270,3.1,3.6,36,0.00,,---,0.00,VWS V14.01,2013-05-22 00:29:00,
2013-05-21 20:34:00,74.3,46.4,29.86,WNW,303,0.0,0.0,37,0.00,,---,0.00,VWS V14.01,2013-05-22 00:34:00,
2013-05-21 20:39:00,73.9,46.0,29.86,SW,236,2.7,3.6,37,0.00,,---,0.00,VWS V14.01,2013-05-22 00:39:00,
2013-05-21 20:44:00,73.9,46.0,29.89,WSW,251,3.6,4.9,37,0.00,,---,0.00,VWS V14.01,2013-05-22 00:44:00,
2013-05-21 20:49:00,73.9,46.0,29.89,SW,217,3.1,3.1,37,0.00,,---,0.00,VWS V14.01,2013-05-22 00:49:00,
2013-05-21 20:54:00,73.8,46.6,29.89,West,261,4.0,4.0,38,0.00,,---,0.00,VWS V14.01,2013-05-22 00:54:00,
2013-05-21 20:59:00,73.6,47.1,29.89,WSW,246,4.9,6.3,39,0.00,,---,0.00,VWS V14.01,2013-05-22 00:59:00,
2013-05-21 21:04:00,73.2,46.8,29.89,WSW,252,5.4,5.8,39,0.00,,---,0.00,VWS V14.01,2013-05-22 01:04:00,
2013-05-21 21:09:00,73.4,47.0,29.89,West,262,3.6,5.4,39,0.00,,---,0.00,VWS V14.01,2013-05-22 01:09:00,
2013-05-21 21:14:00,73.4,47.0,29.89,West,280,2.7,3.1,39,0.00,,---,0.00,VWS V14.01,2013-05-22 01:14:00,
2013-05-21 21:19:00,73.6,47.1,29.89,WSW,242,4.0,4.9,39,0.00,,---,0.00,VWS V14.01,2013-05-22 01:19:00,
2013-05-21 21:24:00,73.6,47.1,29.89,NW,304,3.6,3.6,39,0.00,,---,0.00,VWS V14.01,2013-05-22 01:24:00,
2013-05-21 21:29:00,73.0,47.3,29.89,West,265,0.0,4.0,40,0.00,,---,0.00,VWS V14.01,2013-05-22 01:29:00,
2013-05-21 21:34:00,72.0,47.6,29.89,West,265,0.0,0.0,42,0.00,,---,0.00,VWS V14.01,2013-05-22 01:34:00,
2013-05-21 21:39:00,71.1,48.1,29.89,East,82,0.0,0.0,44,0.00,,---,0.00,VWS V14.01,2013-05-22 01:39:00,
2013-05-21 21:44:00,70.3,48.0,29.89,East,82,0.0,0.0,45,0.00,,---,0.00,VWS V14.01,2013-05-22 01:44:00,
2013-05-21 21:49:00,70.2,48.4,29.89,West,272,0.0,3.6,46,0.00,,---,0.00,VWS V14.01,2013-05-22 01:49:00,
2013-05-21 21:54:00,70.7,48.3,29.89,WSW,238,4.9,5.4,45,0.00,,---,0.00,VWS V14.01,2013-05-22 01:54:00,
2013-05-21 21:59:00,71.4,49.0,29.89,WNW,297,2.2,2.7,45,0.00,,---,0.00,VWS V14.01,2013-05-22 01:59:00,
2013-05-21 22:05:00,71.1,48.7,29.89,West,270,0.0,0.0,45,0.00,,---,0.00,VWS V14.01,2013-05-22 02:05:00,
2013-05-21 22:10:00,70.5,48.2,29.89,West,270,0.0,0.0,45,0.00,,---,0.00,VWS V14.01,2013-05-22 02:10:00,
2013-05-21 22:15:00,69.6,48.5,29.89,West,270,0.0,0.0,47,0.00,,---,0.00,VWS V14.01,2013-05-22 02:15:00,
2013-05-21 22:20:00,69.1,48.6,29.89,West,270,0.0,0.0,48,0.00,,---,0.00,VWS V14.01,2013-05-22 02:20:00,
2013-05-21 22:25:00,68.5,49.2,29.89,West,274,0.0,0.0,50,0.00,,---,0.00,VWS V14.01,2013-05-22 02:25:00,
2013-05-21 22:30:00,68.0,49.2,29.89,West,274,0.0,0.0,51,0.00,,---,0.00,VWS V14.01,2013-05-22 02:30:00,
2013-05-21 22:35:00,67.8,50.1,29.89,NNE,12,0.0,0.0,53,0.00,,---,0.00,VWS V14.01,2013-05-22 02:35:00,
2013-05-21 22:40:00,67.6,49.9,29.89,NNE,12,0.0,0.0,53,0.00,,---,0.00,VWS V14.01,2013-05-22 02:40:00,
2013-05-21 22:45:00,67.5,50.8,29.92,NNE,12,0.0,0.0,55,0.00,,---,0.00,VWS V14.01,2013-05-22 02:45:00,
2013-05-21 22:50:00,67.3,50.6,29.92,NNE,12,0.0,0.0,55,0.00,,---,0.00,VWS V14.01,2013-05-22 02:50:00,
2013-05-21 22:55:00,67.1,51.4,29.92,NW,310,0.0,0.0,57,0.00,,---,0.00,VWS V14.01,2013-05-22 02:55:00,
2013-05-21 23:00:00,67.1,51.8,29.92,North,3,0.0,0.0,58,0.00,,---,0.00,VWS V14.01,2013-05-22 03:00:00,
2013-05-21 23:05:00,67.1,51.8,29.92,North,3,0.0,0.0,58,0.00,,---,0.00,VWS V14.01,2013-05-22 03:05:00,
2013-05-21 23:10:00,66.9,51.7,29.92,North,3,0.0,0.0,58,0.00,,---,0.00,VWS V14.01,2013-05-22 03:10:00,
2013-05-21 23:15:00,66.9,52.1,29.92,North,0,0.0,0.0,59,0.00,,---,0.00,VWS V14.01,2013-05-22 03:15:00,
2013-05-21 23:20:00,66.9,52.6,29.92,North,0,0.0,0.0,60,0.00,,---,0.00,VWS V14.01,2013-05-22 03:20:00,
2013-05-21 23:25:00,66.9,53.0,29.92,North,0,0.0,0.0,61,0.00,,---,0.00,VWS V14.01,2013-05-22 03:25:00,
2013-05-21 23:30:00,66.9,53.0,29.92,North,0,0.0,0.0,61,0.00,,---,0.00,VWS V14.01,2013-05-22 03:30:00,
2013-05-21 23:35:00,66.9,53.0,29.92,WSW,238,0.0,3.6,61,0.00,,---,0.00,VWS V14.01,2013-05-22 03:35:00,
2013-05-21 23:40:00,66.6,52.7,29.92,NW,306,0.0,0.0,61,0.00,,---,0.00,VWS V14.01,2013-05-22 03:40:00,
2013-05-21 23:45:00,66.7,53.8,29.92,SW,218,4.9,4.9,63,0.00,,---,0.00,VWS V14.01,2013-05-22 03:45:00,
2013-05-21 23:50:00,66.7,53.3,29.92,West,260,4.0,4.0,62,0.00,,---,0.00,VWS V14.01,2013-05-22 03:50:00,
2013-05-21 23:55:00,67.3,54.3,29.92,East,95,3.1,3.6,63,0.00,,---,0.00,VWS V14.01,2013-05-22 03:55:00,